Time;durP1;ratioP1;P1;durP2;ratioP2;P2;SDS_P1;SDS_P2;PMS_P1;PMS_P2;Temp;Humidity;BMP_temperature;BMP_pressure;BME280_temperature;BME280_humidity;BME280_pressure;Samples;Min_cycle;Max_cycle;Signal;HPM_P1;HPM_P2
2021/05/27 00:00:41;;;;;;;22.97;11.20;;;;;;;;;;5051761;28;20610;-70
2021/05/27 00:03:07;;;;;;;23.70;10.70;;;;;;;;;;5052806;28;20201;-70
2021/05/27 00:05:32;;;;;;;19.07;10.50;;;;;;;;;;5049717;28;20178;-71
2021/05/27 00:07:58;;;;;;;19.23;9.80;;;;;;;;;;5061239;28;20653;-71
2021/05/27 00:10:25;;;;;;;24.43;10.77;;;;;;;;;;5061907;28;20187;-70
2021/05/27 00:12:50;;;;;;;22.07;10.80;;;;;;;;;;5055077;28;20559;-70
2021/05/27 00:15:17;;;;;;;22.87;10.40;;;;;;;;;;5054538;28;20558;-70
2021/05/27 00:17:42;;;;;;;23.60;10.90;;;;;;;;;;5052508;28;20182;-73
2021/05/27 00:20:08;;;;;;;24.60;12.20;;;;;;;;;;5056795;28;20185;-72
2021/05/27 00:22:33;;;;;;;25.03;10.37;;;;;;;;;;5054192;28;20205;-69
2021/05/27 00:24:59;;;;;;;16.57;9.47;;;;;;;;;;5053484;28;20351;-70
2021/05/27 00:27:24;;;;;;;29.13;10.50;;;;;;;;;;5054742;28;20179;-72
2021/05/27 00:29:49;;;;;;;18.43;8.87;;;;;;;;;;5052395;28;20646;-71
2021/05/27 00:32:14;;;;;;;20.40;9.20;;;;;;;;;;5066976;28;20205;-72
2021/05/27 00:34:39;;;;;;;18.33;9.47;;;;;;;;;;5071399;28;20220;-71
2021/05/27 00:37:05;;;;;;;18.00;7.77;;;;;;;;;;5054083;28;20265;-70
2021/05/27 00:39:30;;;;;;;23.17;9.67;;;;;;;;;;5057903;28;20176;-70
2021/05/27 00:41:57;;;;;;;17.80;8.97;;;;;;;;;;5055771;28;20189;-70
2021/05/27 00:44:22;;;;;;;15.07;8.50;;;;;;;;;;5051987;28;20717;-69
2021/05/27 00:46:48;;;;;;;24.67;10.60;;;;;;;;;;5062688;28;20272;-71
2021/05/27 00:49:13;;;;;;;21.77;9.43;;;;;;;;;;5062159;28;20188;-71
2021/05/27 00:51:38;;;;;;;25.83;9.87;;;;;;;;;;5060576;28;20303;-71
2021/05/27 00:54:03;;;;;;;21.47;10.60;;;;;;;;;;5064561;28;20205;-70
2021/05/27 00:56:29;;;;;;;20.63;10.63;;;;;;;;;;5060569;28;20674;-70
2021/05/27 00:58:54;;;;;;;31.83;10.40;;;;;;;;;;5064833;28;20184;-71
2021/05/27 01:01:19;;;;;;;19.73;9.43;;;;;;;;;;5061520;28;20196;-71
2021/05/27 01:03:45;;;;;;;22.47;11.13;;;;;;;;;;5061720;28;20241;-70
2021/05/27 01:06:10;;;;;;;25.43;10.97;;;;;;;;;;5061253;28;20193;-70
2021/05/27 01:08:36;;;;;;;25.83;10.43;;;;;;;;;;5061094;28;20679;-70
2021/05/27 01:11:01;;;;;;;22.57;11.43;;;;;;;;;;5061342;28;20604;-70
2021/05/27 01:13:26;;;;;;;22.33;10.83;;;;;;;;;;5056276;28;20205;-72
2021/05/27 01:15:52;;;;;;;19.53;9.70;;;;;;;;;;5057118;28;20169;-71
2021/05/27 01:18:18;;;;;;;22.97;10.30;;;;;;;;;;5059985;28;20174;-69
2021/05/27 01:20:45;;;;;;;19.23;10.43;;;;;;;;;;5063028;28;20258;-71
2021/05/27 01:23:11;;;;;;;20.40;9.70;;;;;;;;;;5060217;28;20667;-70
2021/05/27 01:25:37;;;;;;;18.27;9.13;;;;;;;;;;5064755;28;20260;-70
2021/05/27 01:28:02;;;;;;;25.13;9.90;;;;;;;;;;5059611;28;20189;-70
2021/05/27 01:30:27;;;;;;;19.77;9.00;;;;;;;;;;5060949;28;20650;-69
2021/05/27 01:32:53;;;;;;;20.93;9.47;;;;;;;;;;5060283;28;20709;-70
2021/05/27 01:35:20;;;;;;;23.87;10.27;;;;;;;;;;5060701;28;20555;-70
2021/05/27 01:37:45;;;;;;;24.20;10.77;;;;;;;;;;5063166;28;20558;-70
2021/05/27 01:40:11;;;;;;;24.57;10.13;;;;;;;;;;5067878;28;20185;-70
2021/05/27 01:42:36;;;;;;;28.57;10.90;;;;;;;;;;5059567;28;20198;-70
2021/05/27 01:45:02;;;;;;;27.07;10.63;;;;;;;;;;5064061;28;20177;-70
2021/05/27 01:47:28;;;;;;;23.20;9.73;;;;;;;;;;5056879;28;20182;-71
2021/05/27 01:49:53;;;;;;;25.47;9.37;;;;;;;;;;5068117;28;20267;-70
2021/05/27 01:52:18;;;;;;;24.33;8.90;;;;;;;;;;5060974;28;20548;-70
2021/05/27 01:54:43;;;;;;;19.47;8.97;;;;;;;;;;5067212;28;20279;-70
2021/05/27 01:57:08;;;;;;;25.10;9.53;;;;;;;;;;5059935;28;20204;-71
2021/05/27 01:59:34;;;;;;;19.30;8.77;;;;;;;;;;5063286;28;20208;-69
2021/05/27 02:01:59;;;;;;;19.90;8.47;;;;;;;;;;5048042;28;20253;-71
2021/05/27 02:04:24;;;;;;;24.13;10.33;;;;;;;;;;5053680;28;20261;-70
2021/05/27 02:06:49;;;;;;;28.67;9.87;;;;;;;;;;5062254;28;20177;-70
2021/05/27 02:09:15;;;;;;;25.17;10.80;;;;;;;;;;5061409;28;20177;-72
2021/05/27 02:11:41;;;;;;;19.70;8.50;;;;;;;;;;5061741;28;20181;-70
2021/05/27 02:14:07;;;;;;;21.07;8.53;;;;;;;;;;5062561;28;20279;-70
2021/05/27 02:16:33;;;;;;;19.90;8.63;;;;;;;;;;5051180;28;20850;-70
2021/05/27 02:18:58;;;;;;;19.20;8.57;;;;;;;;;;5060650;28;20638;-70
2021/05/27 02:21:23;;;;;;;26.73;10.73;;;;;;;;;;5065916;28;20235;-70
2021/05/27 02:23:51;;;;;;;28.87;9.57;;;;;;;;;;5054844;28;20209;-71
2021/05/27 02:26:16;;;;;;;23.13;9.83;;;;;;;;;;5058254;28;20665;-71
2021/05/27 02:28:41;;;;;;;22.83;8.53;;;;;;;;;;5052840;28;20268;-70
2021/05/27 02:31:06;;;;;;;22.00;10.00;;;;;;;;;;5052762;28;20181;-70
2021/05/27 02:33:33;;;;;;;25.90;10.17;;;;;;;;;;5053668;28;20339;-71
2021/05/27 02:35:58;;;;;;;24.67;9.83;;;;;;;;;;5051546;28;20581;-70
2021/05/27 02:38:23;;;;;;;21.73;10.10;;;;;;;;;;5051508;28;20180;-70
2021/05/27 02:40:48;;;;;;;24.73;9.17;;;;;;;;;;5051656;28;20194;-70
2021/05/27 02:43:13;;;;;;;26.17;11.60;;;;;;;;;;5052033;28;20289;-71
2021/05/27 02:45:38;;;;;;;25.33;9.57;;;;;;;;;;5048983;28;20178;-70
2021/05/27 02:48:04;;;;;;;17.50;8.37;;;;;;;;;;5054580;28;20181;-71
2021/05/27 02:50:29;;;;;;;26.37;8.83;;;;;;;;;;5052965;28;20186;-70
2021/05/27 02:52:54;;;;;;;25.30;9.10;;;;;;;;;;5048038;28;20213;-71
2021/05/27 02:55:19;;;;;;;19.43;9.33;;;;;;;;;;5051808;28;20177;-71
2021/05/27 02:57:44;;;;;;;23.47;7.87;;;;;;;;;;5051830;28;20227;-71
2021/05/27 03:00:10;;;;;;;23.93;9.13;;;;;;;;;;5051752;28;20181;-72
2021/05/27 03:02:35;;;;;;;22.17;8.80;;;;;;;;;;5052207;28;20204;-71
2021/05/27 03:05:00;;;;;;;21.63;8.97;;;;;;;;;;5046601;28;20227;-71
2021/05/27 03:07:25;;;;;;;22.87;9.07;;;;;;;;;;5051763;28;20181;-71
2021/05/27 03:09:51;;;;;;;25.30;8.47;;;;;;;;;;5049602;28;20189;-71
2021/05/27 03:12:16;;;;;;;22.60;9.33;;;;;;;;;;5048629;28;20197;-71
2021/05/27 03:14:41;;;;;;;25.07;8.70;;;;;;;;;;5053043;28;20284;-72
2021/05/27 03:17:06;;;;;;;24.37;9.83;;;;;;;;;;5050119;28;20193;-72
2021/05/27 03:19:31;;;;;;;25.63;9.87;;;;;;;;;;5053969;28;20181;-71
2021/05/27 03:21:57;;;;;;;34.87;9.80;;;;;;;;;;5053168;28;20189;-72
2021/05/27 03:24:22;;;;;;;21.80;8.07;;;;;;;;;;5053620;28;20177;-72
2021/05/27 03:26:51;;;;;;;29.70;9.93;;;;;;;;;;5053612;28;20188;-71
2021/05/27 03:29:17;;;;;;;25.60;9.20;;;;;;;;;;5048090;28;20177;-72
2021/05/27 03:31:42;;;;;;;23.30;9.50;;;;;;;;;;5050484;28;20182;-72
2021/05/27 03:34:08;;;;;;;21.13;10.57;;;;;;;;;;5051801;28;20212;-71
2021/05/27 03:36:33;;;;;;;27.83;9.97;;;;;;;;;;5054891;28;20181;-72
2021/05/27 03:38:58;;;;;;;25.53;9.30;;;;;;;;;;5059475;28;20260;-72
2021/05/27 03:41:23;;;;;;;19.87;9.00;;;;;;;;;;5050977;28;20196;-73
2021/05/27 03:43:48;;;;;;;24.10;9.27;;;;;;;;;;5057055;28;20196;-72
2021/05/27 03:46:13;;;;;;;26.33;9.97;;;;;;;;;;5065094;28;20310;-72
2021/05/27 03:48:38;;;;;;;21.10;8.30;;;;;;;;;;5066962;28;20181;-72
2021/05/27 03:51:04;;;;;;;22.23;9.37;;;;;;;;;;5053688;28;20260;-73
2021/05/27 03:53:29;;;;;;;21.50;8.77;;;;;;;;;;5052296;28;20217;-72
2021/05/27 03:55:54;;;;;;;20.27;9.03;;;;;;;;;;5056074;28;20178;-73
2021/05/27 04:01:03;;;;;;;23.53;10.17;;;;;;;;;;5053961;28;20311;-73
2021/05/27 04:07:04;;;;;;;20.77;10.10;;;;;;;;;;5064130;28;20656;-72
2021/05/27 04:08:57;;;;;;;21.23;8.60;;;;;;;;;;5052460;28;20179;-73
2021/05/27 04:11:22;;;;;;;19.03;9.13;;;;;;;;;;5051832;28;20182;-73
2021/05/27 04:13:48;;;;;;;28.70;9.50;;;;;;;;;;5052276;28;20205;-72
2021/05/27 04:16:13;;;;;;;17.63;8.83;;;;;;;;;;5061029;28;20249;-73
2021/05/27 04:18:38;;;;;;;21.67;9.87;;;;;;;;;;5052791;28;20672;-73
2021/05/27 04:21:03;;;;;;;18.03;9.10;;;;;;;;;;5056922;28;20289;-73
2021/05/27 04:23:38;;;;;;;26.27;10.37;;;;;;;;;;5052946;28;20198;-73
2021/05/27 04:26:04;;;;;;;32.33;10.77;;;;;;;;;;5052162;28;20698;-73
2021/05/27 04:28:31;;;;;;;27.70;11.83;;;;;;;;;;5048865;28;20208;-73
2021/05/27 04:31:09;;;;;;;21.10;9.67;;;;;;;;;;5056444;28;20303;-73
2021/05/27 04:33:34;;;;;;;27.13;10.73;;;;;;;;;;5055247;28;20617;-72
2021/05/27 04:36:00;;;;;;;26.27;9.40;;;;;;;;;;5055461;28;20216;-72
2021/05/27 04:38:25;;;;;;;22.13;8.73;;;;;;;;;;5055615;28;20193;-72
2021/05/27 04:40:50;;;;;;;33.53;11.47;;;;;;;;;;5053727;28;20189;-73
2021/05/27 04:43:16;;;;;;;28.37;9.07;;;;;;;;;;5052801;28;20197;-73
2021/05/27 04:45:41;;;;;;;22.43;9.77;;;;;;;;;;5052339;28;20602;-73
2021/05/27 04:48:10;;;;;;;23.50;9.70;;;;;;;;;;5057938;28;20176;-73
2021/05/27 04:50:35;;;;;;;21.47;8.37;;;;;;;;;;5051882;28;20182;-73
2021/05/27 04:53:00;;;;;;;20.40;8.73;;;;;;;;;;5062494;28;20217;-72
2021/05/27 04:55:26;;;;;;;20.13;8.33;;;;;;;;;;5058677;28;20169;-73
2021/05/27 04:57:51;;;;;;;25.13;8.43;;;;;;;;;;5057409;28;20670;-72
2021/05/27 05:00:17;;;;;;;17.47;7.67;;;;;;;;;;5057287;28;21575;-73
2021/05/27 05:02:42;;;;;;;18.17;8.13;;;;;;;;;;5050708;28;20296;-72
2021/05/27 05:05:09;;;;;;;19.40;7.97;;;;;;;;;;5051289;28;20185;-72
2021/05/27 05:07:35;;;;;;;22.30;7.30;;;;;;;;;;5054341;28;20182;-72
2021/05/27 05:10:00;;;;;;;22.33;7.77;;;;;;;;;;5051996;28;20231;-72
2021/05/27 05:12:25;;;;;;;18.17;7.90;;;;;;;;;;5053281;28;20193;-73
2021/05/27 05:14:51;;;;;;;19.33;7.50;;;;;;;;;;5052430;28;20212;-73
2021/05/27 05:17:16;;;;;;;21.50;7.93;;;;;;;;;;5051849;28;20271;-73
2021/05/27 05:19:41;;;;;;;20.60;8.20;;;;;;;;;;5056259;28;20183;-72
2021/05/27 05:22:06;;;;;;;21.70;8.33;;;;;;;;;;5064142;28;20174;-73
2021/05/27 05:24:31;;;;;;;16.77;6.93;;;;;;;;;;5051419;28;20630;-73
2021/05/27 05:26:57;;;;;;;17.40;7.70;;;;;;;;;;5058227;28;20205;-73
2021/05/27 05:29:22;;;;;;;25.67;8.33;;;;;;;;;;5061338;28;20228;-72
2021/05/27 05:31:47;;;;;;;20.83;7.93;;;;;;;;;;5056818;28;20336;-72
2021/05/27 05:34:12;;;;;;;18.20;7.50;;;;;;;;;;5053477;28;20256;-71
2021/05/27 05:36:38;;;;;;;17.43;7.17;;;;;;;;;;5052623;28;20185;-73
2021/05/27 05:39:04;;;;;;;19.97;8.43;;;;;;;;;;5053527;28;20272;-73
2021/05/27 05:41:29;;;;;;;26.07;8.87;;;;;;;;;;5051865;28;20196;-71
2021/05/27 05:43:54;;;;;;;20.50;8.17;;;;;;;;;;5051181;28;20279;-74
2021/05/27 05:46:19;;;;;;;21.43;8.03;;;;;;;;;;5051183;28;20263;-74
2021/05/27 05:48:44;;;;;;;19.93;7.70;;;;;;;;;;5052713;28;20190;-72
2021/05/27 05:51:10;;;;;;;20.13;7.90;;;;;;;;;;5052809;28;20181;-72
2021/05/27 05:53:37;;;;;;;18.80;8.27;;;;;;;;;;5051496;28;20205;-72
2021/05/27 05:56:02;;;;;;;21.50;7.27;;;;;;;;;;5049931;28;20180;-73
2021/05/27 05:58:28;;;;;;;18.57;9.00;;;;;;;;;;5051176;28;20182;-72
2021/05/27 06:00:53;;;;;;;16.60;7.43;;;;;;;;;;5060388;28;20192;-72
2021/05/27 06:03:19;;;;;;;15.57;7.40;;;;;;;;;;5047286;28;20201;-72
2021/05/27 06:05:44;;;;;;;16.27;7.70;;;;;;;;;;5049251;28;20192;-71
2021/05/27 06:08:09;;;;;;;15.87;6.60;;;;;;;;;;5059538;28;20209;-72
2021/05/27 06:10:34;;;;;;;16.23;7.30;;;;;;;;;;5060396;28;20814;-73
2021/05/27 06:13:00;;;;;;;16.60;7.53;;;;;;;;;;5060083;28;20201;-73
2021/05/27 06:15:25;;;;;;;24.23;7.77;;;;;;;;;;5062184;28;20554;-74
2021/05/27 06:17:54;;;;;;;18.20;6.80;;;;;;;;;;5050922;28;20574;-72
2021/05/27 06:20:20;;;;;;;19.23;7.70;;;;;;;;;;5053600;28;20169;-73
2021/05/27 06:22:45;;;;;;;23.23;8.13;;;;;;;;;;5050309;28;20229;-72
2021/05/27 06:25:11;;;;;;;20.10;7.70;;;;;;;;;;5049993;28;20177;-73
2021/05/27 06:27:36;;;;;;;19.10;7.47;;;;;;;;;;5047274;28;20178;-72
2021/05/27 06:30:01;;;;;;;17.37;8.23;;;;;;;;;;5053530;28;20173;-72
2021/05/27 06:32:28;;;;;;;18.67;8.07;;;;;;;;;;5051331;28;20604;-73
2021/05/27 06:34:54;;;;;;;23.40;7.97;;;;;;;;;;5046839;28;20296;-72
2021/05/27 06:37:19;;;;;;;25.20;8.57;;;;;;;;;;5055215;28;20305;-73
2021/05/27 06:39:44;;;;;;;16.10;6.40;;;;;;;;;;5047775;28;20207;-73
2021/05/27 06:42:10;;;;;;;18.83;6.90;;;;;;;;;;5053789;28;20264;-73
2021/05/27 06:44:35;;;;;;;16.87;6.40;;;;;;;;;;5049246;28;20548;-72
2021/05/27 06:47:00;;;;;;;21.60;8.27;;;;;;;;;;5051626;28;20643;-72
2021/05/27 06:49:25;;;;;;;19.43;7.63;;;;;;;;;;5051832;28;20243;-73
2021/05/27 06:51:51;;;;;;;20.63;6.70;;;;;;;;;;5049722;28;20177;-73
2021/05/27 06:54:16;;;;;;;22.87;8.80;;;;;;;;;;5050585;28;20257;-73
2021/05/27 06:56:41;;;;;;;21.00;7.57;;;;;;;;;;5057459;28;20187;-73
2021/05/27 06:59:06;;;;;;;26.07;6.87;;;;;;;;;;5064341;28;20180;-73
2021/05/27 07:01:31;;;;;;;24.87;7.43;;;;;;;;;;5060183;28;20256;-73
2021/05/27 07:03:57;;;;;;;23.33;7.60;;;;;;;;;;5049527;28;20251;-73
2021/05/27 07:06:22;;;;;;;20.47;8.00;;;;;;;;;;5060414;28;20185;-73
2021/05/27 07:08:47;;;;;;;15.17;7.07;;;;;;;;;;5045251;28;20181;-73
2021/05/27 07:11:12;;;;;;;26.80;8.57;;;;;;;;;;5043198;28;20687;-72
2021/05/27 07:13:38;;;;;;;20.40;6.53;;;;;;;;;;5050827;28;20200;-72
2021/05/27 07:16:03;;;;;;;13.40;6.30;;;;;;;;;;5056073;28;20257;-72
2021/05/27 07:18:28;;;;;;;20.23;6.73;;;;;;;;;;5037064;28;20177;-72
2021/05/27 07:20:53;;;;;;;18.20;6.83;;;;;;;;;;5041970;28;20183;-72
2021/05/27 07:23:19;;;;;;;23.23;7.87;;;;;;;;;;5048359;28;20212;-73
2021/05/27 07:25:44;;;;;;;20.13;8.20;;;;;;;;;;5060870;28;20639;-73
2021/05/27 07:28:10;;;;;;;18.47;7.53;;;;;;;;;;5052031;28;20251;-74
2021/05/27 07:30:35;;;;;;;18.03;6.87;;;;;;;;;;5070542;28;20220;-73
2021/05/27 07:33:00;;;;;;;17.57;6.23;;;;;;;;;;5059126;28;20398;-73
2021/05/27 07:35:26;;;;;;;21.20;10.23;;;;;;;;;;5059466;28;20224;-73
2021/05/27 07:37:52;;;;;;;16.73;7.17;;;;;;;;;;5060457;28;20576;-73
2021/05/27 07:40:17;;;;;;;22.37;7.47;;;;;;;;;;5059772;28;20244;-73
2021/05/27 07:42:42;;;;;;;20.33;7.03;;;;;;;;;;5062359;28;20250;-72
2021/05/27 07:45:08;;;;;;;20.30;6.97;;;;;;;;;;5051896;28;20236;-73
2021/05/27 07:47:34;;;;;;;19.83;6.37;;;;;;;;;;5045107;28;20260;-74
2021/05/27 07:50:02;;;;;;;12.80;7.27;;;;;;;;;;5046003;28;20197;-72
2021/05/27 07:52:28;;;;;;;17.63;7.17;;;;;;;;;;5045175;28;20197;-73
2021/05/27 07:54:53;;;;;;;19.43;6.83;;;;;;;;;;5045048;28;20207;-71
2021/05/27 07:57:21;;;;;;;26.53;7.50;;;;;;;;;;5046157;28;20538;-72
2021/05/27 07:59:47;;;;;;;16.90;6.17;;;;;;;;;;5044877;28;20197;-73
2021/05/27 08:02:12;;;;;;;16.93;6.53;;;;;;;;;;5044879;28;20300;-72
2021/05/27 08:04:41;;;;;;;15.03;6.37;;;;;;;;;;5044398;28;20644;-73
2021/05/27 08:07:06;;;;;;;13.53;6.27;;;;;;;;;;5049868;28;20181;-73
2021/05/27 08:09:31;;;;;;;21.33;7.30;;;;;;;;;;5043713;28;20726;-73
2021/05/27 08:11:57;;;;;;;18.03;6.83;;;;;;;;;;5047367;28;20491;-73
2021/05/27 08:14:22;;;;;;;18.70;7.03;;;;;;;;;;5045645;28;20208;-73
2021/05/27 08:16:47;;;;;;;19.43;7.87;;;;;;;;;;5043408;28;20193;-72
2021/05/27 08:19:12;;;;;;;22.77;7.40;;;;;;;;;;5043125;28;20536;-73
2021/05/27 08:21:38;;;;;;;19.23;5.90;;;;;;;;;;5045733;28;20279;-72
2021/05/27 08:24:03;;;;;;;13.70;6.27;;;;;;;;;;5044584;28;20686;-74
2021/05/27 08:26:28;;;;;;;23.60;7.10;;;;;;;;;;5045589;28;20182;-72
2021/05/27 08:28:54;;;;;;;17.23;6.47;;;;;;;;;;5045073;28;20185;-72
2021/05/27 08:31:19;;;;;;;12.30;6.27;;;;;;;;;;5044607;28;20201;-72
2021/05/27 08:33:44;;;;;;;12.53;6.10;;;;;;;;;;5042902;28;20213;-73
2021/05/27 08:36:10;;;;;;;14.93;5.63;;;;;;;;;;5044029;28;20177;-73
2021/05/27 08:38:35;;;;;;;19.07;8.03;;;;;;;;;;5041912;28;20564;-73
2021/05/27 08:41:00;;;;;;;16.03;6.67;;;;;;;;;;5053377;28;20177;-73
2021/05/27 08:43:27;;;;;;;16.87;6.23;;;;;;;;;;5045725;28;21333;-73
2021/05/27 08:45:52;;;;;;;15.80;6.30;;;;;;;;;;5053116;28;20186;-72
2021/05/27 08:48:18;;;;;;;14.37;5.77;;;;;;;;;;5047812;28;20189;-72
2021/05/27 08:50:45;;;;;;;18.37;5.97;;;;;;;;;;5044360;28;20547;-72
2021/05/27 08:53:11;;;;;;;14.07;5.90;;;;;;;;;;5043821;28;20709;-72
2021/05/27 08:55:37;;;;;;;14.87;5.73;;;;;;;;;;5042028;28;20181;-72
2021/05/27 08:58:02;;;;;;;14.17;6.27;;;;;;;;;;5046724;28;20958;-74
2021/05/27 09:00:27;;;;;;;13.07;6.30;;;;;;;;;;5046263;28;20173;-72
2021/05/27 09:02:53;;;;;;;14.30;6.03;;;;;;;;;;5044144;28;20205;-72
2021/05/27 09:05:19;;;;;;;19.83;6.90;;;;;;;;;;5044737;28;20177;-72
2021/05/27 09:07:44;;;;;;;14.20;5.87;;;;;;;;;;5041642;28;20303;-72
2021/05/27 09:10:10;;;;;;;14.93;7.43;;;;;;;;;;5044276;28;20216;-71
2021/05/27 09:12:35;;;;;;;17.60;7.63;;;;;;;;;;5042161;28;20201;-71
2021/05/27 09:15:03;;;;;;;17.67;6.30;;;;;;;;;;5041772;28;20298;-72
2021/05/27 09:17:41;;;;;;;16.17;5.73;;;;;;;;;;5040769;28;20454;-71
2021/05/27 09:20:10;;;;;;;14.40;4.97;;;;;;;;;;5043181;28;20185;-72
2021/05/27 09:22:36;;;;;;;16.77;5.70;;;;;;;;;;5043408;28;20201;-72
2021/05/27 09:25:01;;;;;;;17.43;6.50;;;;;;;;;;5042594;28;20716;-72
2021/05/27 09:27:45;;;;;;;17.67;5.60;;;;;;;;;;5040540;28;20188;-71
2021/05/27 09:30:11;;;;;;;19.30;5.67;;;;;;;;;;5043521;28;20177;-71
2021/05/27 09:32:40;;;;;;;17.13;6.70;;;;;;;;;;5042530;28;20279;-70
2021/05/27 09:35:08;;;;;;;18.37;7.03;;;;;;;;;;5040928;28;21179;-71
2021/05/27 09:37:33;;;;;;;16.40;7.33;;;;;;;;;;5042560;28;20280;-71
2021/05/27 09:39:59;;;;;;;15.53;6.77;;;;;;;;;;5044363;28;20182;-71
2021/05/27 09:42:25;;;;;;;20.33;8.10;;;;;;;;;;5049776;28;20300;-71
2021/05/27 09:44:51;;;;;;;19.07;6.47;;;;;;;;;;5040561;28;20501;-72
2021/05/27 09:47:36;;;;;;;13.93;5.97;;;;;;;;;;5045813;28;20617;-72
2021/05/27 09:50:06;;;;;;;21.00;7.10;;;;;;;;;;5045355;28;20197;-71
2021/05/27 09:52:38;;;;;;;18.07;5.70;;;;;;;;;;5042902;28;20585;-71
2021/05/27 09:55:07;;;;;;;23.03;6.93;;;;;;;;;;5042488;28;20205;-72
2021/05/27 09:57:33;;;;;;;18.43;6.70;;;;;;;;;;5040072;28;20182;-71
2021/05/27 09:59:58;;;;;;;19.53;6.93;;;;;;;;;;5040779;28;20183;-71
2021/05/27 10:02:23;;;;;;;20.20;7.47;;;;;;;;;;5043813;28;20296;-71
2021/05/27 10:04:55;;;;;;;23.10;7.53;;;;;;;;;;5042457;28;20182;-71
2021/05/27 10:07:38;;;;;;;20.60;8.03;;;;;;;;;;5047276;28;20650;-71
2021/05/27 10:10:04;;;;;;;20.40;6.97;;;;;;;;;;5043720;28;20185;-71
2021/05/27 10:12:35;;;;;;;17.20;6.50;;;;;;;;;;5042597;28;20211;-71
2021/05/27 10:15:00;;;;;;;21.17;7.43;;;;;;;;;;5041974;28;20209;-71
2021/05/27 10:17:26;;;;;;;21.27;6.67;;;;;;;;;;5039913;28;20181;-72
2021/05/27 10:19:51;;;;;;;19.70;7.57;;;;;;;;;;5040990;28;21714;-70
2021/05/27 10:22:16;;;;;;;19.73;7.20;;;;;;;;;;5043220;28;20205;-72
2021/05/27 10:24:42;;;;;;;23.20;6.93;;;;;;;;;;5039987;28;21121;-71
2021/05/27 10:27:07;;;;;;;15.90;6.43;;;;;;;;;;5042404;28;20246;-71
2021/05/27 10:29:33;;;;;;;23.07;7.90;;;;;;;;;;5040671;28;20193;-70
2021/05/27 10:31:59;;;;;;;17.90;6.23;;;;;;;;;;5042470;28;20248;-71
2021/05/27 10:34:46;;;;;;;19.53;6.17;;;;;;;;;;5039518;28;20247;-69
2021/05/27 10:37:13;;;;;;;17.43;6.00;;;;;;;;;;5039411;28;20193;-70
2021/05/27 10:39:38;;;;;;;14.60;6.47;;;;;;;;;;5042436;28;20264;-70
2021/05/27 10:42:03;;;;;;;11.50;5.43;;;;;;;;;;5048329;28;20268;-71
2021/05/27 10:44:29;;;;;;;11.83;5.63;;;;;;;;;;5043647;28;21159;-70
2021/05/27 10:46:54;;;;;;;16.67;6.33;;;;;;;;;;5042737;28;20181;-71
2021/05/27 10:49:49;;;;;;;13.73;6.60;;;;;;;;;;5043808;28;20189;-71
2021/05/27 10:52:35;;;;;;;12.73;5.60;;;;;;;;;;5040501;28;21184;-71
2021/05/27 10:55:04;;;;;;;15.10;5.70;;;;;;;;;;5044072;28;20209;-71
2021/05/27 10:57:38;;;;;;;22.07;7.47;;;;;;;;;;5044539;28;20174;-70
2021/05/27 11:00:04;;;;;;;15.90;6.40;;;;;;;;;;5046480;28;20211;-70
2021/05/27 11:02:30;;;;;;;13.87;6.53;;;;;;;;;;5046019;28;20216;-70
2021/05/27 11:05:14;;;;;;;16.87;6.17;;;;;;;;;;5049133;28;21715;-71
2021/05/27 11:07:39;;;;;;;17.83;6.17;;;;;;;;;;5052023;28;20188;-70
2021/05/27 11:10:24;;;;;;;15.73;7.17;;;;;;;;;;5051906;28;20177;-71
2021/05/27 11:13:02;;;;;;;12.47;6.03;;;;;;;;;;5049892;28;20205;-70
2021/05/27 11:15:28;;;;;;;12.97;5.73;;;;;;;;;;5048443;28;20181;-71
2021/05/27 11:18:03;;;;;;;15.33;6.63;;;;;;;;;;5046504;28;20195;-69
2021/05/27 11:20:30;;;;;;;13.80;6.37;;;;;;;;;;5045230;28;20993;-70
2021/05/27 11:22:57;;;;;;;15.97;6.73;;;;;;;;;;5043354;28;20240;-69
2021/05/27 11:25:24;;;;;;;12.57;6.17;;;;;;;;;;5045048;28;20181;-70
2021/05/27 11:27:58;;;;;;;15.67;6.60;;;;;;;;;;5046608;28;20189;-70
2021/05/27 11:30:28;;;;;;;18.30;7.20;;;;;;;;;;5047203;28;20482;-70
2021/05/27 11:32:56;;;;;;;15.20;7.33;;;;;;;;;;5044427;28;20208;-70
2021/05/27 11:35:25;;;;;;;16.80;6.03;;;;;;;;;;5044988;28;20904;-70
2021/05/27 11:37:51;;;;;;;17.60;5.60;;;;;;;;;;5046114;28;20196;-70
2021/05/27 11:40:17;;;;;;;13.73;5.50;;;;;;;;;;5048121;28;20522;-71
2021/05/27 11:42:50;;;;;;;13.82;5.57;;;;;;;;;;5047937;28;20679;-71
2021/05/27 11:45:15;;;;;;;12.75;4.85;;;;;;;;;;5048091;28;20184;-70
2021/05/27 11:47:40;;;;;;;11.60;4.43;;;;;;;;;;5047073;28;20211;-70
2021/05/27 11:50:13;;;;;;;9.85;5.43;;;;;;;;;;5043899;28;20497;-71
2021/05/27 11:52:39;;;;;;;11.73;4.75;;;;;;;;;;5048813;28;20202;-71
2021/05/27 11:55:05;;;;;;;8.20;3.63;;;;;;;;;;5045548;28;20653;-71
2021/05/27 11:57:47;;;;;;;11.15;3.60;;;;;;;;;;5048283;28;20204;-71
2021/05/27 12:00:14;;;;;;;7.95;3.40;;;;;;;;;;5045944;28;20205;-70
2021/05/27 12:02:52;;;;;;;13.15;4.32;;;;;;;;;;5047984;28;20227;-71
2021/05/27 12:05:25;;;;;;;11.02;3.78;;;;;;;;;;5048451;28;20705;-71
2021/05/27 12:08:06;;;;;;;7.65;3.63;;;;;;;;;;5043989;28;20646;-71
2021/05/27 12:10:33;;;;;;;8.32;3.35;;;;;;;;;;5048530;28;20622;-70
2021/05/27 12:12:58;;;;;;;12.07;3.95;;;;;;;;;;5044639;28;20288;-70
2021/05/27 12:15:24;;;;;;;12.13;3.60;;;;;;;;;;5043054;28;20177;-70
2021/05/27 12:17:51;;;;;;;14.35;4.35;;;;;;;;;;5042233;28;20198;-70
2021/05/27 12:20:19;;;;;;;7.72;3.45;;;;;;;;;;5045949;28;20212;-70
2021/05/27 12:22:45;;;;;;;9.85;3.45;;;;;;;;;;5042205;28;20197;-70
2021/05/27 12:25:12;;;;;;;13.55;4.00;;;;;;;;;;5044785;28;20193;-70
2021/05/27 12:27:50;;;;;;;8.07;4.53;;;;;;;;;;5043301;28;20184;-71
2021/05/27 12:30:20;;;;;;;8.40;3.55;;;;;;;;;;5045878;28;20188;-71
2021/05/27 12:32:46;;;;;;;13.55;4.15;;;;;;;;;;5044193;28;20297;-71
2021/05/27 12:35:20;;;;;;;9.32;3.33;;;;;;;;;;5045433;28;20188;-70
2021/05/27 12:37:47;;;;;;;6.05;3.53;;;;;;;;;;5044633;28;20587;-71
2021/05/27 12:40:16;;;;;;;11.30;3.88;;;;;;;;;;5048442;28;20181;-70
2021/05/27 12:42:41;;;;;;;8.65;3.70;;;;;;;;;;5045329;28;20898;-71
2021/05/27 12:45:22;;;;;;;13.90;5.55;;;;;;;;;;5042133;28;20197;-72
2021/05/27 12:48:07;;;;;;;9.60;3.58;;;;;;;;;;5041524;28;21550;-71
2021/05/27 12:50:33;;;;;;;12.35;3.67;;;;;;;;;;5040030;28;20197;-70
2021/05/27 12:52:58;;;;;;;9.98;3.55;;;;;;;;;;5040876;28;20196;-71
2021/05/27 12:55:31;;;;;;;11.50;3.65;;;;;;;;;;5044298;28;20479;-71
2021/05/27 12:58:00;;;;;;;10.20;2.97;;;;;;;;;;5045385;28;20679;-71
2021/05/27 13:00:26;;;;;;;9.10;3.70;;;;;;;;;;5044200;28;20177;-70
2021/05/27 13:02:59;;;;;;;8.50;2.92;;;;;;;;;;5042523;28;20201;-71
2021/05/27 13:05:24;;;;;;;10.43;2.92;;;;;;;;;;5042712;28;20673;-71
2021/05/27 13:07:53;;;;;;;9.70;3.35;;;;;;;;;;5049495;28;20185;-70
2021/05/27 13:10:28;;;;;;;8.82;2.85;;;;;;;;;;5041644;28;20754;-71
2021/05/27 13:12:53;;;;;;;10.20;3.15;;;;;;;;;;5045576;28;20218;-71
2021/05/27 13:15:18;;;;;;;10.10;2.70;;;;;;;;;;5046721;28;20181;-70
2021/05/27 13:17:59;;;;;;;8.35;2.50;;;;;;;;;;5047435;28;20224;-70
2021/05/27 13:20:25;;;;;;;6.40;2.40;;;;;;;;;;5042880;28;20651;-70
2021/05/27 13:22:50;;;;;;;10.13;2.67;;;;;;;;;;5044673;28;20203;-72
2021/05/27 13:25:15;;;;;;;6.38;2.55;;;;;;;;;;5047179;28;20651;-70
2021/05/27 13:27:49;;;;;;;5.28;2.03;;;;;;;;;;5042435;28;20217;-71
2021/05/27 13:30:20;;;;;;;6.88;2.00;;;;;;;;;;5043131;28;20520;-71
2021/05/27 13:32:45;;;;;;;7.22;2.38;;;;;;;;;;5043579;28;20204;-71
2021/05/27 13:35:13;;;;;;;7.78;2.45;;;;;;;;;;5043294;28;20295;-71
2021/05/27 13:37:44;;;;;;;6.65;2.08;;;;;;;;;;5040555;28;20197;-71
2021/05/27 13:40:17;;;;;;;7.45;2.90;;;;;;;;;;5079801;27;21374;-70
2021/05/27 13:42:43;;;;;;;9.60;2.03;;;;;;;;;;5068712;28;20197;-70
2021/05/27 13:45:12;;;;;;;9.52;2.38;;;;;;;;;;5070117;28;20177;-70
2021/05/27 13:47:37;;;;;;;6.75;1.95;;;;;;;;;;5068773;28;20176;-70
2021/05/27 13:50:03;;;;;;;6.13;1.60;;;;;;;;;;5067973;28;20183;-71
2021/05/27 13:52:28;;;;;;;11.70;2.13;;;;;;;;;;5076147;28;20208;-70
2021/05/27 13:54:55;;;;;;;7.97;3.10;;;;;;;;;;5065536;28;20180;-70
2021/05/27 13:57:20;;;;;;;10.57;2.40;;;;;;;;;;5067639;28;20256;-70
2021/05/27 13:59:45;;;;;;;4.05;1.90;;;;;;;;;;5072500;28;20199;-70
2021/05/27 14:02:11;;;;;;;9.50;2.42;;;;;;;;;;5068464;28;20180;-70
2021/05/27 14:04:36;;;;;;;8.23;2.35;;;;;;;;;;5068792;28;20661;-69
2021/05/27 14:07:02;;;;;;;5.35;1.77;;;;;;;;;;5067985;28;20341;-69
2021/05/27 14:09:28;;;;;;;5.38;2.38;;;;;;;;;;5071763;28;21147;-70
2021/05/27 14:11:53;;;;;;;6.93;2.15;;;;;;;;;;5067482;28;20185;-70
2021/05/27 14:14:18;;;;;;;6.05;1.67;;;;;;;;;;5068294;28;20242;-70
2021/05/27 14:16:43;;;;;;;6.05;2.53;;;;;;;;;;5068248;28;20645;-70
2021/05/27 14:19:08;;;;;;;6.55;2.10;;;;;;;;;;5067439;28;20691;-70
2021/05/27 14:21:34;;;;;;;5.80;2.33;;;;;;;;;;5070984;28;20645;-70
2021/05/27 14:23:59;;;;;;;7.45;2.20;;;;;;;;;;5067477;28;20200;-70
2021/05/27 14:26:24;;;;;;;7.60;2.00;;;;;;;;;;5069658;28;20203;-69
2021/05/27 14:28:50;;;;;;;6.13;1.98;;;;;;;;;;5069017;28;20737;-70
2021/05/27 14:31:16;;;;;;;6.13;1.70;;;;;;;;;;5067119;28;20176;-70
2021/05/27 14:33:42;;;;;;;5.72;2.10;;;;;;;;;;5067187;28;20594;-70